Time;durP1;ratioP1;P1;durP2;ratioP2;P2;SDS_P1;SDS_P2;PMS_P1;PMS_P2;Temp;Humidity;BMP_temperature;BMP_pressure;BME280_temperature;BME280_humidity;BME280_pressure;Samples;Min_cycle;Max_cycle;Signal;HPM_P1;HPM_P2
2022/10/21 00:02:20;;;;;;;39.00;22.25;;;11.80;99.90;;;;;;6340022;22;20072;-79
2022/10/21 00:04:45;;;;;;;39.75;23.33;;;11.80;99.90;;;;;;6312050;22;20026;-79
2022/10/21 00:07:11;;;;;;;38.75;22.80;;;11.80;99.90;;;;;;6312042;22;20105;-79
2022/10/21 00:09:37;;;;;;;39.35;24.02;;;11.70;99.90;;;;;;6339844;22;20022;-79
2022/10/21 00:12:03;;;;;;;38.60;20.98;;;11.70;99.90;;;;;;6339928;22;20041;-79
2022/10/21 00:14:29;;;;;;;41.42;22.48;;;11.70;99.90;;;;;;6339509;22;20395;-79
2022/10/21 00:16:54;;;;;;;42.28;22.55;;;11.70;99.90;;;;;;6339876;22;20011;-79
2022/10/21 00:19:20;;;;;;;41.97;23.08;;;11.70;99.90;;;;;;6339857;22;20071;-79
2022/10/21 00:21:45;;;;;;;40.63;23.67;;;11.70;99.90;;;;;;6311867;22;20350;-78
2022/10/21 00:24:11;;;;;;;41.28;23.48;;;11.70;99.90;;;;;;6339849;22;20011;-79
2022/10/21 00:26:36;;;;;;;42.53;24.83;;;11.70;99.90;;;;;;6339796;22;20019;-79
2022/10/21 00:29:02;;;;;;;40.28;23.02;;;11.70;99.90;;;;;;6311839;22;20030;-79
2022/10/21 00:31:29;;;;;;;37.35;22.63;;;11.70;99.90;;;;;;6339438;22;20018;-79
2022/10/21 00:33:55;;;;;;;41.90;24.67;;;11.60;99.90;;;;;;6339396;22;20018;-79
2022/10/21 00:36:20;;;;;;;42.95;23.08;;;11.60;99.90;;;;;;6311597;22;20023;-79
2022/10/21 00:38:47;;;;;;;40.22;22.77;;;11.60;99.90;;;;;;6339430;22;20018;-79
2022/10/21 00:41:15;;;;;;;45.03;23.02;;;11.60;99.90;;;;;;6311671;22;20072;-79
2022/10/21 00:44:01;;;;;;;37.05;22.33;;;11.60;99.90;;;;;;6311394;22;20332;-79
2022/10/21 00:46:33;;;;;;;43.53;23.30;;;11.60;99.90;;;;;;6311662;22;20030;-79
2022/10/21 00:49:01;;;;;;;43.00;22.92;;;11.60;99.90;;;;;;6311613;22;20379;-79
2022/10/21 00:51:27;;;;;;;40.60;23.13;;;11.60;99.90;;;;;;6311505;22;20363;-79
2022/10/21 00:53:53;;;;;;;43.72;22.38;;;11.50;99.90;;;;;;6339291;22;20014;-79
2022/10/21 00:56:24;;;;;;;40.70;22.15;;;11.50;99.90;;;;;;6311579;22;20025;-79
2022/10/21 00:58:51;;;;;;;38.42;22.35;;;11.50;99.90;;;;;;6339682;22;20030;-79
2022/10/21 01:01:17;;;;;;;42.50;22.95;;;11.50;99.90;;;;;;6311561;22;20350;-79
2022/10/21 01:03:43;;;;;;;44.33;22.48;;;11.50;99.90;;;;;;6311661;22;20439;-79
2022/10/21 01:06:12;;;;;;;46.83;22.48;;;11.50;99.90;;;;;;6339171;22;20075;-79
2022/10/21 01:08:38;;;;;;;45.67;23.25;;;11.60;99.90;;;;;;6311597;22;20094;-79
2022/10/21 01:11:10;;;;;;;41.33;23.67;;;11.50;99.90;;;;;;6311481;22;20015;-79
2022/10/21 01:14:00;;;;;;;39.75;20.98;;;11.60;99.90;;;;;;6339567;22;20110;-79
2022/10/21 01:17:07;;;;;;;38.28;21.73;;;11.50;99.90;;;;;;6339134;22;20018;-79
2022/10/21 01:20:03;;;;;;;39.80;21.55;;;11.50;99.90;;;;;;6311532;22;20019;-79
2022/10/21 01:23:18;;;;;;;41.70;21.98;;;11.60;99.90;;;;;;6339470;22;20046;-79
2022/10/21 01:25:59;;;;;;;46.50;21.90;;;11.60;99.90;;;;;;6339526;22;20011;-79
2022/10/21 01:28:41;;;;;;;42.25;20.92;;;11.50;99.90;;;;;;6339505;22;20014;-79
2022/10/21 01:31:34;;;;;;;36.55;21.25;;;11.50;99.90;;;;;;6339484;22;20060;-78
2022/10/21 01:34:24;;;;;;;41.45;21.90;;;11.50;99.90;;;;;;6317060;22;20022;-79
2022/10/21 01:37:04;;;;;;;38.75;22.35;;;11.50;99.90;;;;;;6311437;22;20042;-79
2022/10/21 01:39:40;;;;;;;41.92;23.02;;;11.50;99.90;;;;;;6339399;22;20038;-79
2022/10/21 01:42:19;;;;;;;37.08;22.38;;;11.50;99.90;;;;;;6339095;22;20045;-79
2022/10/21 01:45:20;;;;;;;41.10;22.50;;;11.50;99.90;;;;;;6311164;22;20015;-79
2022/10/21 01:47:55;;;;;;;48.65;23.20;;;11.60;99.90;;;;;;6212983;23;20095;-79
2022/10/21 01:50:32;;;;;;;42.97;22.30;;;11.50;99.90;;;;;;6321186;22;20015;-79
2022/10/21 01:53:04;;;;;;;42.30;23.00;;;11.50;99.90;;;;;;6339274;22;20090;-79
2022/10/21 01:55:31;;;;;;;39.22;21.98;;;11.50;99.90;;;;;;6339269;22;20011;-79
2022/10/21 01:58:05;;;;;;;43.67;23.38;;;11.50;99.90;;;;;;6338947;22;20019;-79
2022/10/21 02:00:33;;;;;;;39.65;22.55;;;11.50;99.90;;;;;;6339845;22;20086;-79
2022/10/21 02:03:03;;;;;;;42.03;22.55;;;11.50;99.90;;;;;;6340995;22;20082;-79
2022/10/21 02:05:31;;;;;;;41.75;22.80;;;11.50;99.90;;;;;;6341150;22;20454;-79
2022/10/21 02:07:56;;;;;;;41.30;22.08;;;11.50;99.90;;;;;;6341004;22;20007;-79
2022/10/21 02:10:25;;;;;;;43.95;23.60;;;11.50;99.90;;;;;;6341013;22;20015;-79
2022/10/21 02:12:54;;;;;;;46.65;22.65;;;11.50;99.90;;;;;;6313122;22;20018;-79
2022/10/21 02:15:22;;;;;;;43.58;22.48;;;11.50;99.90;;;;;;6340791;22;20014;-79
2022/10/21 02:17:54;;;;;;;49.20;25.10;;;11.50;99.90;;;;;;6313043;22;20072;-80
2022/10/21 02:20:23;;;;;;;48.65;24.83;;;11.50;99.90;;;;;;6313124;22;20041;-79
2022/10/21 02:22:49;;;;;;;41.13;23.20;;;11.60;99.90;;;;;;6312988;22;20019;-79
2022/10/21 02:25:24;;;;;;;46.28;23.77;;;11.60;99.90;;;;;;6312910;22;20029;-79
2022/10/21 02:27:50;;;;;;;49.25;24.35;;;11.60;99.90;;;;;;6341240;22;20036;-79
2022/10/21 02:30:16;;;;;;;44.38;23.08;;;11.60;99.90;;;;;;6313042;22;20037;-79
2022/10/21 02:32:52;;;;;;;47.58;24.25;;;11.60;99.90;;;;;;6312990;22;20015;-79
2022/10/21 02:35:44;;;;;;;44.17;23.63;;;11.60;99.90;;;;;;6312775;22;20022;-79
2022/10/21 02:38:40;;;;;;;45.33;23.60;;;11.60;99.90;;;;;;6312867;22;20060;-79
2022/10/21 02:41:12;;;;;;;48.72;23.50;;;11.60;99.90;;;;;;6340805;22;20015;-79
2022/10/21 02:43:45;;;;;;;43.85;24.02;;;11.60;99.90;;;;;;6312601;22;20019;-80
2022/10/21 02:46:13;;;;;;;42.55;22.88;;;11.60;99.90;;;;;;6340045;22;20023;-79
2022/10/21 02:48:43;;;;;;;47.85;23.88;;;11.60;99.90;;;;;;6340274;22;20022;-79
2022/10/21 02:51:08;;;;;;;48.92;23.70;;;11.60;99.90;;;;;;6312798;22;20011;-79
2022/10/21 02:53:35;;;;;;;47.35;23.90;;;11.60;99.90;;;;;;6312625;22;20450;-79
2022/10/21 02:56:01;;;;;;;45.63;24.13;;;11.60;99.90;;;;;;6340245;22;20019;-79
2022/10/21 02:58:27;;;;;;;47.33;23.80;;;11.60;99.90;;;;;;6340473;22;20013;-79
2022/10/21 03:00:52;;;;;;;54.05;26.27;;;11.60;99.90;;;;;;6340528;22;20086;-79
2022/10/21 03:03:18;;;;;;;47.65;26.17;;;11.70;99.90;;;;;;6312544;22;20384;-79
2022/10/21 03:05:44;;;;;;;45.95;24.08;;;11.70;99.90;;;;;;6340410;22;20026;-79
2022/10/21 03:08:09;;;;;;;49.30;24.40;;;11.70;99.90;;;;;;6312492;22;20442;-79
2022/10/21 03:10:35;;;;;;;52.67;25.83;;;11.70;99.90;;;;;;6340307;22;20015;-79
2022/10/21 03:13:01;;;;;;;52.83;26.27;;;11.70;99.90;;;;;;6311949;22;20018;-81
2022/10/21 03:15:26;;;;;;;53.78;26.42;;;11.80;99.90;;;;;;6340229;22;20015;-80
2022/10/21 03:17:52;;;;;;;59.22;27.02;;;11.80;99.90;;;;;;6312481;22;20029;-80
2022/10/21 03:20:18;;;;;;;48.25;25.92;;;11.80;99.90;;;;;;6340325;22;20074;-81
2022/10/21 03:22:43;;;;;;;59.95;27.08;;;11.90;99.90;;;;;;6340272;22;20018;-81
2022/10/21 03:25:09;;;;;;;56.90;25.75;;;12.00;99.90;;;;;;6340379;22;20019;-81
2022/10/21 03:27:35;;;;;;;62.05;26.50;;;12.00;99.90;;;;;;6339902;22;20450;-81
2022/10/21 03:30:01;;;;;;;52.65;25.65;;;12.10;99.90;;;;;;6340258;22;20019;-81
2022/10/21 03:32:27;;;;;;;63.88;27.15;;;12.10;99.90;;;;;;6312304;22;20364;-82
2022/10/21 03:34:52;;;;;;;53.47;25.88;;;12.20;99.90;;;;;;6340157;22;20086;-81
2022/10/21 03:37:18;;;;;;;53.67;25.40;;;12.20;99.90;;;;;;6340210;22;20036;-81
2022/10/21 03:39:43;;;;;;;48.10;23.90;;;12.20;99.90;;;;;;6339896;22;20331;-81
2022/10/21 03:42:09;;;;;;;48.35;23.50;;;12.20;99.90;;;;;;6339802;22;20455;-81
2022/10/21 03:44:35;;;;;;;52.13;23.88;;;12.20;99.90;;;;;;6339817;22;20014;-81
2022/10/21 03:47:00;;;;;;;48.85;22.45;;;12.20;99.90;;;;;;6340055;22;20342;-81
2022/10/21 03:49:26;;;;;;;43.60;21.42;;;12.30;99.90;;;;;;6340122;22;20330;-81
2022/10/21 03:51:51;;;;;;;44.95;21.73;;;12.20;99.90;;;;;;6312160;22;20342;-81
2022/10/21 03:54:17;;;;;;;45.58;20.50;;;12.30;99.90;;;;;;6312162;22;20023;-81
2022/10/21 03:56:43;;;;;;;44.33;20.27;;;12.20;99.90;;;;;;6339907;22;20431;-81
2022/10/21 03:59:09;;;;;;;45.38;21.30;;;12.30;99.90;;;;;;6339707;22;20029;-81
2022/10/21 04:01:35;;;;;;;49.78;21.90;;;12.30;99.90;;;;;;6340027;22;20018;-81
2022/10/21 04:04:01;;;;;;;46.13;21.05;;;12.40;99.90;;;;;;6339758;22;20015;-80
2022/10/21 04:06:26;;;;;;;44.50;20.25;;;12.50;99.90;;;;;;6312603;22;20022;-80
2022/10/21 04:08:52;;;;;;;44.58;18.90;;;12.60;99.90;;;;;;6339902;22;20434;-81
2022/10/21 04:11:18;;;;;;;47.28;19.95;;;12.70;99.90;;;;;;6339543;22;20042;-80
2022/10/21 04:13:43;;;;;;;39.20;18.52;;;12.80;99.90;;;;;;6339885;22;20072;-80
2022/10/21 04:16:14;;;;;;;46.05;19.02;;;12.90;99.90;;;;;;6339508;22;20451;-80
2022/10/21 04:18:40;;;;;;;36.80;17.27;;;12.90;99.90;;;;;;6339949;22;20049;-80
2022/10/21 04:21:05;;;;;;;37.13;17.55;;;12.90;99.90;;;;;;6311804;22;20018;-80
2022/10/21 04:23:31;;;;;;;37.70;17.98;;;12.90;99.90;;;;;;6339152;22;20458;-80
2022/10/21 04:25:57;;;;;;;35.55;17.58;;;12.90;99.90;;;;;;6311750;22;20019;-80
2022/10/21 04:28:22;;;;;;;35.40;16.42;;;12.90;99.90;;;;;;6311857;22;20053;-80
2022/10/21 04:30:51;;;;;;;38.00;17.25;;;12.90;99.90;;;;;;6339788;22;20090;-80
2022/10/21 04:33:17;;;;;;;34.63;16.40;;;12.90;99.90;;;;;;6311728;22;20018;-79
2022/10/21 04:35:43;;;;;;;33.30;15.70;;;12.80;99.90;;;;;;6339326;22;20316;-79
2022/10/21 04:38:08;;;;;;;41.17;17.60;;;12.80;99.90;;;;;;6311628;22;20011;-80
2022/10/21 04:40:34;;;;;;;34.65;15.57;;;12.80;99.90;;;;;;6339704;22;20049;-80
2022/10/21 04:43:01;;;;;;;39.38;17.05;;;12.70;99.90;;;;;;6339720;22;20018;-80
2022/10/21 04:45:26;;;;;;;36.72;16.67;;;12.80;99.90;;;;;;6311474;22;20019;-80
2022/10/21 04:47:52;;;;;;;36.90;17.38;;;12.70;99.90;;;;;;6339241;22;20049;-80
2022/10/21 04:50:18;;;;;;;37.10;16.58;;;12.80;99.90;;;;;;6339177;22;20097;-80
2022/10/21 04:52:43;;;;;;;40.08;17.55;;;12.80;99.90;;;;;;6339304;22;20018;-80
2022/10/21 04:55:09;;;;;;;38.97;19.05;;;12.80;99.90;;;;;;6339491;22;20011;-80
2022/10/21 04:57:35;;;;;;;36.33;18.17;;;12.70;99.90;;;;;;6339528;22;20446;-80
2022/10/21 05:00:02;;;;;;;34.90;17.25;;;12.70;99.90;;;;;;6339264;22;20026;-80
2022/10/21 05:02:28;;;;;;;31.27;16.95;;;12.70;99.90;;;;;;6339542;22;20053;-80
2022/10/21 05:04:53;;;;;;;33.90;17.02;;;12.70;99.90;;;;;;6339572;22;20014;-80
2022/10/21 05:07:19;;;;;;;34.30;17.55;;;12.60;99.90;;;;;;6339587;22;20331;-80
2022/10/21 05:09:44;;;;;;;36.58;17.02;;;12.60;99.90;;;;;;6339434;22;20007;-80
2022/10/21 05:12:10;;;;;;;34.90;17.35;;;12.60;99.90;;;;;;6339467;22;20022;-80
2022/10/21 05:14:36;;;;;;;36.22;18.08;;;12.60;99.90;;;;;;6338992;22;20034;-80
2022/10/21 05:17:02;;;;;;;40.13;19.02;;;12.50;99.90;;;;;;6339543;22;20015;-80
2022/10/21 05:19:27;;;;;;;42.20;18.85;;;12.50;99.90;;;;;;6339460;22;20381;-80
2022/10/21 05:21:53;;;;;;;45.85;21.45;;;12.50;99.90;;;;;;6311402;22;20014;-80
2022/10/21 05:24:18;;;;;;;40.03;19.60;;;12.50;99.90;;;;;;6339445;22;20064;-80
2022/10/21 05:26:44;;;;;;;40.78;20.00;;;12.40;99.90;;;;;;6339469;22;20029;-80
2022/10/21 05:29:10;;;;;;;45.20;20.80;;;12.40;99.90;;;;;;6339500;22;20011;-80
2022/10/21 05:31:35;;;;;;;46.40;22.60;;;12.50;99.90;;;;;;6339416;22;20030;-80
2022/10/21 05:34:01;;;;;;;47.47;20.77;;;12.50;99.90;;;;;;6311503;22;20342;-79
2022/10/21 05:36:27;;;;;;;37.13;19.80;;;12.50;99.90;;;;;;6313102;22;20338;-79
2022/10/21 05:38:53;;;;;;;41.63;20.25;;;12.40;99.90;;;;;;6341279;22;20041;-80
2022/10/21 05:41:18;;;;;;;54.15;23.63;;;12.40;99.90;;;;;;6313314;22;20394;-80
2022/10/21 05:43:44;;;;;;;41.80;20.70;;;12.40;99.90;;;;;;6340921;22;20015;-80
2022/10/21 05:46:10;;;;;;;44.85;21.67;;;12.30;99.90;;;;;;6341257;22;20030;-80
2022/10/21 05:48:36;;;;;;;51.08;23.00;;;12.30;99.90;;;;;;6341198;22;20331;-80
2022/10/21 05:51:02;;;;;;;47.70;22.80;;;12.40;99.90;;;;;;6340858;22;20018;-80
2022/10/21 05:53:28;;;;;;;50.03;23.27;;;12.30;99.90;;;;;;6340990;22;20090;-79
2022/10/21 05:55:58;;;;;;;46.78;22.63;;;12.30;99.90;;;;;;6313142;22;20015;-80
2022/10/21 05:58:25;;;;;;;50.88;22.58;;;12.30;99.90;;;;;;6340729;22;20041;-80
2022/10/21 06:00:54;;;;;;;59.63;24.85;;;12.30;99.90;;;;;;6340572;22;20300;-79
2022/10/21 06:03:28;;;;;;;55.72;24.42;;;12.30;99.90;;;;;;6341004;22;20019;-79
2022/10/21 06:05:55;;;;;;;59.45;25.83;;;12.30;99.90;;;;;;6340688;22;20050;-79
2022/10/21 06:08:21;;;;;;;54.58;24.83;;;12.30;99.90;;;;;;6340977;22;20015;-80
2022/10/21 06:10:46;;;;;;;53.33;24.67;;;12.30;99.90;;;;;;6313060;22;20021;-79
2022/10/21 06:13:12;;;;;;;50.92;24.13;;;12.30;99.90;;;;;;6313573;22;20011;-80
2022/10/21 06:15:38;;;;;;;54.42;24.77;;;12.30;99.90;;;;;;6311878;22;20102;-80
2022/10/21 06:18:03;;;;;;;47.90;23.42;;;12.20;99.90;;;;;;6311254;22;20394;-80
2022/10/21 06:20:29;;;;;;;51.25;24.67;;;12.20;99.90;;;;;;6312916;22;20026;-80
2022/10/21 06:22:54;;;;;;;54.95;24.65;;;12.20;99.90;;;;;;6312874;22;20343;-80
2022/10/21 06:25:20;;;;;;;49.33;26.52;;;12.20;99.90;;;;;;6340428;22;20015;-80
2022/10/21 06:27:46;;;;;;;60.53;27.60;;;12.20;99.90;;;;;;6312796;22;20022;-79
2022/10/21 06:30:12;;;;;;;69.22;36.03;;;12.30;99.90;;;;;;6312707;22;20383;-80
2022/10/21 06:32:37;;;;;;;85.53;45.60;;;12.20;99.90;;;;;;6312704;22;20018;-80
2022/10/21 06:35:03;;;;;;;70.82;35.72;;;12.20;99.90;;;;;;6312693;22;20025;-79
2022/10/21 06:37:29;;;;;;;59.30;32.20;;;12.20;99.90;;;;;;6312583;22;20026;-79
2022/10/21 06:39:54;;;;;;;56.38;30.17;;;12.20;99.90;;;;;;6312693;22;20014;-80
2022/10/21 06:42:20;;;;;;;61.58;27.65;;;12.30;99.90;;;;;;6312642;22;20015;-80
2022/10/21 06:44:46;;;;;;;61.35;27.98;;;12.30;99.90;;;;;;6312402;22;20327;-80
2022/10/21 06:47:11;;;;;;;63.03;28.67;;;12.30;99.90;;;;;;6312787;22;20042;-80
2022/10/21 06:49:37;;;;;;;81.47;33.83;;;12.30;99.90;;;;;;6340154;22;20025;-80
2022/10/21 06:52:03;;;;;;;55.08;26.30;;;12.40;99.90;;;;;;6312557;22;20042;-80
2022/10/21 06:54:28;;;;;;;59.10;27.85;;;12.40;99.90;;;;;;6312577;22;20458;-80
2022/10/21 06:56:54;;;;;;;59.70;27.25;;;12.40;99.90;;;;;;6340247;22;20019;-80
2022/10/21 06:59:20;;;;;;;61.83;28.88;;;12.40;99.90;;;;;;6312451;22;20033;-80
2022/10/21 07:01:45;;;;;;;62.15;27.02;;;12.50;99.90;;;;;;6312547;22;20026;-80
2022/10/21 07:04:11;;;;;;;56.08;26.58;;;12.50;99.90;;;;;;6340048;22;20015;-78
2022/10/21 07:06:37;;;;;;;64.88;29.00;;;12.50;99.90;;;;;;6339983;22;20022;-80
2022/10/21 07:09:04;;;;;;;58.20;28.27;;;12.50;99.90;;;;;;6339889;22;20026;-79
2022/10/21 07:11:29;;;;;;;61.20;27.58;;;12.50;99.90;;;;;;6340215;22;20010;-79
2022/10/21 07:13:55;;;;;;;58.75;27.63;;;12.40;99.90;;;;;;6340215;22;20064;-79
2022/10/21 07:16:24;;;;;;;55.70;26.60;;;12.50;99.90;;;;;;6340365;22;20054;-79
2022/10/21 07:18:50;;;;;;;59.63;26.67;;;12.50;99.90;;;;;;6339811;22;20046;-80
2022/10/21 07:21:18;;;;;;;60.45;26.15;;;12.60;99.90;;;;;;6312241;22;20007;-79
2022/10/21 07:23:50;;;;;;;52.50;25.83;;;12.60;99.90;;;;;;6312261;22;20019;-79
2022/10/21 07:26:16;;;;;;;62.95;28.77;;;12.50;99.90;;;;;;6339855;22;20069;-79
2022/10/21 07:28:46;;;;;;;67.60;28.60;;;12.60;99.90;;;;;;6312496;22;20011;-79
2022/10/21 07:31:16;;;;;;;57.58;27.67;;;12.70;99.90;;;;;;6312096;22;20095;-79
2022/10/21 07:33:42;;;;;;;61.78;27.60;;;12.70;99.90;;;;;;6340342;22;20015;-79
2022/10/21 07:36:09;;;;;;;56.88;26.80;;;12.70;99.90;;;;;;6339554;22;20076;-79
2022/10/21 07:38:35;;;;;;;59.90;27.20;;;12.70;99.90;;;;;;6339643;22;20053;-79
2022/10/21 07:41:01;;;;;;;63.90;28.13;;;12.80;99.90;;;;;;6312453;22;20014;-80
2022/10/21 07:43:28;;;;;;;55.10;27.63;;;12.80;99.90;;;;;;6311930;22;20023;-81
2022/10/21 07:45:53;;;;;;;60.55;28.08;;;12.90;99.90;;;;;;6310540;22;20376;-80
2022/10/21 07:48:19;;;;;;;60.20;28.00;;;12.90;99.90;;;;;;6339758;22;20106;-80
2022/10/21 07:50:45;;;;;;;61.22;29.65;;;13.00;99.90;;;;;;6312021;22;20011;-80
2022/10/21 07:53:11;;;;;;;66.85;30.35;;;12.90;99.90;;;;;;6339613;22;20334;-79
2022/10/21 07:55:36;;;;;;;62.63;29.35;;;13.00;99.90;;;;;;6311991;22;20109;-79
2022/10/21 07:58:03;;;;;;;55.33;26.92;;;13.00;99.90;;;;;;6338896;22;20042;-80
2022/10/21 08:00:29;;;;;;;64.00;28.92;;;13.10;99.90;;;;;;6311496;22;20026;-81
2022/10/21 08:02:55;;;;;;;60.95;28.13;;;13.10;99.90;;;;;;6339289;22;20023;-80
2022/10/21 08:05:22;;;;;;;55.50;26.23;;;13.20;99.90;;;;;;6339309;22;20059;-79
2022/10/21 08:07:48;;;;;;;56.58;28.40;;;13.20;99.90;;;;;;6311468;22;20144;-81
2022/10/21 08:10:14;;;;;;;60.95;28.25;;;13.30;99.90;;;;;;6339100;22;20350;-82
2022/10/21 08:12:58;;;;;;;65.65;28.95;;;13.20;99.90;;;;;;6311712;22;20541;-81
2022/10/21 08:15:24;;;;;;;60.28;28.65;;;13.40;99.90;;;;;;6311305;22;20018;-82
2022/10/21 08:18:27;;;;;;;61.00;27.33;;;13.50;99.90;;;;;;6311215;22;20023;-81
2022/10/21 08:20:54;;;;;;;61.80;27.60;;;13.40;99.90;;;;;;6339481;22;20011;-82
2022/10/21 08:23:21;;;;;;;57.75;26.25;;;13.50;99.90;;;;;;6339229;22;20068;-81
2022/10/21 08:25:52;;;;;;;49.72;25.33;;;13.50;99.90;;;;;;6339322;22;20080;-82
2022/10/21 08:28:19;;;;;;;54.03;25.77;;;13.60;99.90;;;;;;6311586;22;20011;-82
2022/10/21 08:30:45;;;;;;;54.38;28.77;;;13.50;99.90;;;;;;6339386;22;20022;-82
2022/10/21 08:33:12;;;;;;;55.38;26.45;;;13.60;99.90;;;;;;6311604;22;20335;-82
2022/10/21 08:35:38;;;;;;;53.95;26.33;;;13.50;99.90;;;;;;6339056;22;20015;-82
2022/10/21 08:38:05;;;;;;;52.03;25.63;;;13.60;99.90;;;;;;6338876;22;20023;-81
2022/10/21 08:40:44;;;;;;;50.78;26.58;;;13.60;99.90;;;;;;6339377;22;20017;-81
2022/10/21 08:43:27;;;;;;;55.05;26.92;;;13.60;99.90;;;;;;6339134;22;20019;-81
2022/10/21 08:46:17;;;;;;;49.13;24.95;;;13.60;99.90;;;;;;6338769;22;20007;-81
2022/10/21 08:48:55;;;;;;;48.70;25.83;;;13.50;99.90;;;;;;6339117;22;20106;-81
2022/10/21 08:51:32;;;;;;;49.22;26.55;;;13.50;99.90;;;;;;6311375;22;20312;-81
2022/10/21 08:54:05;;;;;;;52.80;26.50;;;13.60;99.90;;;;;;6309926;22;20022;-81
2022/10/21 08:56:31;;;;;;;55.22;25.65;;;13.60;99.90;;;;;;6310188;22;20049;-81
2022/10/21 08:58:57;;;;;;;46.35;26.30;;;13.60;99.90;;;;;;6310072;22;20046;-81
2022/10/21 09:01:42;;;;;;;54.13;26.98;;;13.60;99.90;;;;;;6309810;22;20149;-81
2022/10/21 09:04:16;;;;;;;44.13;24.17;;;13.70;99.90;;;;;;6338870;22;20342;-81
2022/10/21 09:06:48;;;;;;;43.38;24.40;;;13.70;99.90;;;;;;6338860;22;20045;-81
2022/10/21 09:09:24;;;;;;;49.78;27.00;;;13.70;99.90;;;;;;6312133;22;20023;-81
2022/10/21 09:12:18;;;;;;;48.50;25.35;;;13.80;99.90;;;;;;6313806;22;20330;-80
2022/10/21 09:15:24;;;;;;;48.13;24.50;;;13.80;99.90;;;;;;6313238;22;20030;-81
2022/10/21 09:18:05;;;;;;;40.58;22.55;;;13.80;99.90;;;;;;6323482;22;20022;-80
2022/10/21 09:20:33;;;;;;;44.85;24.05;;;13.80;99.90;;;;;;6340880;22;20019;-80
2022/10/21 09:23:28;;;;;;;46.88;25.08;;;13.70;99.90;;;;;;6313276;22;20458;-81
2022/10/21 09:26:05;;;;;;;42.88;24.15;;;13.80;99.90;;;;;;6313713;22;20015;-81
2022/10/21 09:28:31;;;;;;;41.17;21.95;;;13.80;99.90;;;;;;6341019;22;20045;-79
2022/10/21 09:31:00;;;;;;;44.30;24.00;;;13.90;99.90;;;;;;6340742;22;20025;-80
2022/10/21 09:33:33;;;;;;;43.30;24.10;;;13.90;99.90;;;;;;6313040;22;20346;-80
2022/10/21 09:36:37;;;;;;;46.95;23.20;;;13.90;99.90;;;;;;6340727;22;20019;-80
2022/10/21 09:39:13;;;;;;;40.70;22.63;;;14.00;99.90;;;;;;6288127;22;20072;-79
2022/10/21 09:41:46;;;;;;;41.13;23.33;;;14.00;99.90;;;;;;6313464;22;20027;-79
2022/10/21 09:44:19;;;;;;;41.88;22.58;;;14.10;99.90;;;;;;6340801;22;20023;-80
2022/10/21 09:46:46;;;;;;;43.63;22.30;;;14.00;99.90;;;;;;6340856;22;20019;-80
2022/10/21 09:49:35;;;;;;;40.92;23.67;;;14.00;99.90;;;;;;6340816;22;20064;-79
2022/10/21 09:52:04;;;;;;;42.90;23.23;;;14.00;99.90;;;;;;6340773;22;20030;-80
2022/10/21 09:54:36;;;;;;;41.42;23.30;;;14.10;99.90;;;;;;6340664;22;20014;-79
2022/10/21 09:57:05;;;;;;;37.42;21.80;;;14.20;99.90;;;;;;6340477;22;20093;-80
2022/10/21 09:59:31;;;;;;;40.67;21.40;;;14.20;99.90;;;;;;6340117;22;20100;-80
2022/10/21 10:02:05;;;;;;;37.15;21.52;;;14.20;99.90;;;;;;6340622;22;20011;-80
2022/10/21 10:04:33;;;;;;;37.80;21.52;;;14.30;99.90;;;;;;6312905;22;20022;-80
2022/10/21 10:07:18;;;;;;;39.25;22.50;;;14.30;99.90;;;;;;6340609;22;20025;-80
2022/10/21 10:09:45;;;;;;;38.67;21.45;;;14.30;99.90;;;;;;6338640;22;20030;-80
2022/10/21 10:12:29;;;;;;;35.95;20.75;;;14.40;99.90;;;;;;6312780;22;20335;-91
2022/10/21 10:14:56;;;;;;;35.95;20.13;;;14.30;99.90;;;;;;6312832;22;20014;-92
2022/10/21 10:17:32;;;;;;;35.35;19.50;;;14.40;99.90;;;;;;6319872;22;20025;-90
2022/10/21 10:20:04;;;;;;;36.28;21.08;;;14.50;99.90;;;;;;6313886;22;20011;-88
2022/10/21 10:22:36;;;;;;;34.17;19.05;;;14.50;99.90;;;;;;6312500;22;20023;-80
2022/10/21 10:25:10;;;;;;;31.85;17.55;;;14.50;99.90;;;;;;6340404;22;20011;-79
2022/10/21 10:27:51;;;;;;;34.25;19.83;;;14.50;99.90;;;;;;6339824;22;20140;-80
2022/10/21 10:30:17;;;;;;;33.15;19.20;;;14.50;99.90;;;;;;6340202;22;20022;-96
2022/10/21 10:32:44;;;;;;;34.25;19.35;;;14.50;99.90;;;;;;6287210;22;20019;-94
2022/10/21 10:35:25;;;;;;;34.75;19.58;;;14.60;99.90;;;;;;6312791;22;20019;-78
2022/10/21 10:37:52;;;;;;;32.85;17.92;;;14.60;99.90;;;;;;6310634;22;20339;-89
2022/10/21 10:40:24;;;;;;;30.50;17.63;;;14.60;99.90;;;;;;6309390;22;20015;-88
2022/10/21 10:43:00;;;;;;;33.58;17.98;;;14.70;99.90;;;;;;6311520;22;20393;-93
2022/10/21 10:45:30;;;;;;;30.70;18.77;;;14.70;99.90;;;;;;6312867;22;20089;-92
2022/10/21 10:47:59;;;;;;;30.30;17.20;;;14.70;99.90;;;;;;6312444;22;20049;-79
2022/10/21 10:50:37;;;;;;;33.05;18.25;;;14.80;99.90;;;;;;6312638;22;20091;-79
2022/10/21 10:53:28;;;;;;;26.45;15.90;;;14.60;99.90;;;;;;6312369;22;20057;-81
2022/10/21 10:56:19;;;;;;;33.50;18.38;;;14.80;99.90;;;;;;6339862;22;20023;-79
2022/10/21 10:58:55;;;;;;;30.27;16.65;;;14.90;99.90;;;;;;6295070;22;20022;-79
2022/10/21 11:01:29;;;;;;;28.08;16.75;;;14.80;99.90;;;;;;6312716;22;20036;-79
2022/10/21 11:04:05;;;;;;;30.02;16.48;;;14.90;99.90;;;;;;6340184;22;20144;-87
2022/10/21 11:06:54;;;;;;;26.38;16.70;;;14.80;99.90;;;;;;6312458;22;20468;-79
2022/10/21 11:09:20;;;;;;;29.80;17.30;;;14.90;99.90;;;;;;6312347;22;20064;-80
2022/10/21 11:11:47;;;;;;;30.55;18.58;;;15.00;99.90;;;;;;6340077;22;20019;-79
2022/10/21 11:14:17;;;;;;;31.50;16.30;;;14.90;99.90;;;;;;6312145;22;20087;-79
2022/10/21 11:17:11;;;;;;;35.38;19.65;;;15.00;99.90;;;;;;6339269;22;20019;-79
2022/10/21 11:20:01;;;;;;;33.78;20.23;;;15.10;99.90;;;;;;6339765;22;20057;-79
2022/10/21 11:22:57;;;;;;;28.08;16.85;;;15.00;99.90;;;;;;6312343;22;20090;-79
2022/10/21 11:25:35;;;;;;;29.95;17.92;;;15.10;99.90;;;;;;6340110;22;20086;-79
2022/10/21 11:28:20;;;;;;;26.58;16.00;;;15.20;99.90;;;;;;6339773;22;20026;-80
2022/10/21 11:30:58;;;;;;;25.60;14.80;;;15.10;99.90;;;;;;6339970;22;20140;-78
2022/10/21 11:34:01;;;;;;;26.67;15.30;;;15.20;99.90;;;;;;6339031;22;20046;-79
2022/10/21 11:36:39;;;;;;;24.20;14.25;;;15.20;99.90;;;;;;6312368;22;20056;-79
2022/10/21 11:40:00;;;;;;;27.00;17.40;;;15.20;99.90;;;;;;6311770;22;20053;-78
2022/10/21 11:42:36;;;;;;;22.45;13.02;;;15.30;99.90;;;;;;6188523;23;20037;-81
2022/10/21 11:45:50;;;;;;;22.95;12.73;;;15.40;99.90;;;;;;6188436;23;20017;-81
2022/10/21 11:48:31;;;;;;;27.13;13.70;;;15.30;99.90;;;;;;6330417;22;20019;-79
2022/10/21 11:51:16;;;;;;;26.05;13.45;;;15.40;99.90;;;;;;6339836;22;20042;-78
2022/10/21 11:53:57;;;;;;;22.25;12.60;;;15.30;99.90;;;;;;6312135;22;20093;-79
2022/10/21 11:56:41;;;;;;;25.85;12.20;;;15.40;99.90;;;;;;6339846;22;20019;-79
2022/10/21 11:59:19;;;;;;;20.02;11.38;;;15.40;99.90;;;;;;6311745;22;20086;-79
2022/10/21 12:02:13;;;;;;;18.00;11.65;;;15.50;99.90;;;;;;6311832;22;20381;-79
2022/10/21 12:05:08;;;;;;;18.67;11.30;;;15.40;99.90;;;;;;6312100;22;20022;-79
2022/10/21 12:08:00;;;;;;;19.27;11.07;;;15.40;99.90;;;;;;6311791;22;20018;-80
2022/10/21 12:10:26;;;;;;;16.80;10.50;;;15.50;99.90;;;;;;6311991;22;20011;-79
2022/10/21 12:12:55;;;;;;;21.90;11.90;;;15.50;99.90;;;;;;6311370;22;20017;-79
2022/10/21 12:16:01;;;;;;;23.25;12.32;;;15.60;99.90;;;;;;6337855;22;20076;-79
2022/10/21 12:18:29;;;;;;;19.85;10.95;;;15.60;99.90;;;;;;6289371;22;20054;-79
2022/10/21 12:20:57;;;;;;;21.10;13.38;;;15.60;99.90;;;;;;6337792;22;20423;-80
2022/10/21 12:23:25;;;;;;;21.08;11.40;;;15.60;99.90;;;;;;6339464;22;20063;-80
2022/10/21 12:26:08;;;;;;;18.70;11.10;;;15.60;99.90;;;;;;6339404;22;20006;-80
2022/10/21 12:28:42;;;;;;;17.95;9.77;;;15.60;99.90;;;;;;6311787;22;20023;-80
2022/10/21 12:31:33;;;;;;;20.73;10.32;;;15.50;99.90;;;;;;6339363;22;20011;-79
2022/10/21 12:34:01;;;;;;;18.23;9.70;;;15.50;99.90;;;;;;6339016;22;20018;-79
2022/10/21 12:36:40;;;;;;;18.98;10.05;;;15.60;99.90;;;;;;6339250;22;20015;-79
2022/10/21 12:39:15;;;;;;;14.32;10.00;;;15.60;99.90;;;;;;6339078;22;20097;-79
2022/10/21 12:41:46;;;;;;;19.95;9.60;;;15.70;99.90;;;;;;6338904;22;20022;-79
2022/10/21 12:44:21;;;;;;;18.55;9.70;;;15.50;99.90;;;;;;6310948;22;20338;-79
2022/10/21 12:46:53;;;;;;;15.50;9.40;;;15.60;99.90;;;;;;6311670;22;20014;-79
2022/10/21 12:49:22;;;;;;;16.13;9.45;;;15.70;99.90;;;;;;6311521;22;20089;-79
2022/10/21 12:51:56;;;;;;;17.42;9.23;;;15.60;99.90;;;;;;6338877;22;20022;-79